Time;durP1;ratioP1;P1;durP2;ratioP2;P2;SDS_P1;SDS_P2;PMS_P1;PMS_P2;Temp;Humidity;BMP_temperature;BMP_pressure;BME280_temperature;BME280_humidity;BME280_pressure;Samples;Min_cycle;Max_cycle;Signal;HPM_P1;HPM_P2
2023/01/13 00:00:19;;;;;;;;;;;;;;;10.35;93.32;100479.16;5081835;28;19920;-52
2023/01/13 00:02:44;;;;;;;;;;;;;;;10.33;93.77;100460.28;5081952;28;20265;-51
2023/01/13 00:05:09;;;;;;;;;;;;;;;10.32;93.65;100465.41;5082883;28;19916;-50
2023/01/13 00:07:35;;;;;;;;;;;;;;;10.30;93.29;100465.34;5085827;28;19915;-50
2023/01/13 00:10:00;;;;;;;;;;;;;;;10.29;93.02;100462.75;5083990;28;19951;-49
2023/01/13 00:12:25;;;;;;;;;;;;;;;10.28;92.54;100454.16;5081296;28;20844;-50
2023/01/13 00:14:50;;;;;;;;;;;;;;;10.25;92.26;100459.22;5080188;28;19920;-53
2023/01/13 00:17:16;;;;;;;;;;;;;;;10.20;91.62;100443.69;5089384;28;20018;-52
2023/01/13 00:19:41;;;;;;;;;;;;;;;10.18;91.13;100450.47;5089106;28;19919;-52
2023/01/13 00:22:06;;;;;;;;;;;;;;;10.18;91.27;100442.75;5083391;28;20451;-53
2023/01/13 00:24:32;;;;;;;;;;;;;;;10.16;91.70;100441.00;5087685;28;20523;-51
2023/01/13 00:26:57;;;;;;;;;;;;;;;10.15;91.70;100431.56;5095252;28;19934;-53
2023/01/13 00:29:22;;;;;;;;;;;;;;;10.15;90.70;100440.13;5088025;28;19927;-52
2023/01/13 00:31:48;;;;;;;;;;;;;;;10.12;90.36;100437.50;5091835;28;20270;-50
2023/01/13 00:34:13;;;;;;;;;;;;;;;10.07;89.16;100421.13;5085520;28;19924;-53
2023/01/13 00:36:38;;;;;;;;;;;;;;;10.05;89.97;100420.19;5089329;28;19969;-52
2023/01/13 00:39:03;;;;;;;;;;;;;;;10.03;88.92;100419.31;5085556;28;20017;-51
2023/01/13 00:43:21;;;;;;;;;;;;;;;10.01;89.10;100415.84;5086726;28;20341;-48
2023/01/13 00:44:14;;;;;;;;;;;;;;;10.01;89.12;100425.22;5081772;28;20339;-51
2023/01/13 00:46:39;;;;;;;;;;;;;;;9.96;89.08;100421.72;5081102;28;19922;-51
2023/01/13 00:49:04;;;;;;;;;;;;;;;9.95;88.52;100420.84;5086391;28;19939;-51
2023/01/13 00:51:29;;;;;;;;;;;;;;;9.95;89.15;100425.97;5088992;28;19916;-51
2023/01/13 00:53:56;;;;;;;;;;;;;;;9.92;87.99;100425.88;5080762;28;19920;-53
2023/01/13 00:56:23;;;;;;;;;;;;;;;9.93;88.30;100427.63;5084992;28;19919;-47
2023/01/13 00:58:48;;;;;;;;;;;;;;;9.90;88.18;100436.13;5086711;28;19915;-52
2023/01/13 01:01:15;;;;;;;;;;;;;;;9.88;88.13;100436.91;5088495;28;19922;-52
2023/01/13 01:03:40;;;;;;;;;;;;;;;9.86;87.78;100433.44;5078310;28;19922;-53
2023/01/13 01:06:07;;;;;;;;;;;;;;;9.82;87.55;100440.19;5090145;28;19920;-52
2023/01/13 01:08:32;;;;;;;;;;;;;;;9.80;87.91;100451.28;5081268;28;19991;-53
2023/01/13 01:11:02;;;;;;;;;;;;;;;9.79;88.86;100444.41;5085103;28;20002;-51
2023/01/13 01:13:27;;;;;;;;;;;;;;;9.79;88.20;100450.41;5079881;28;19923;-49
2023/01/13 01:15:52;;;;;;;;;;;;;;;9.79;89.08;100445.28;5086749;28;20363;-52
2023/01/13 01:18:18;;;;;;;;;;;;;;;9.81;89.30;100450.44;5085521;28;19920;-52
2023/01/13 01:20:43;;;;;;;;;;;;;;;9.80;88.70;100446.13;5085537;28;20010;-51
2023/01/13 01:23:08;;;;;;;;;;;;;;;9.82;88.93;100449.59;5085119;28;20323;-52
2023/01/13 01:25:33;;;;;;;;;;;;;;;9.80;88.49;100451.28;5088091;28;19929;-51
2023/01/13 01:27:59;;;;;;;;;;;;;;;9.79;89.06;100447.84;5081531;28;19934;-51
2023/01/13 01:30:24;;;;;;;;;;;;;;;9.79;88.77;100444.41;5081834;28;19990;-53
2023/01/13 01:32:49;;;;;;;;;;;;;;;9.79;88.88;100439.28;5096740;27;19924;-50
2023/01/13 01:35:14;;;;;;;;;;;;;;;9.82;89.28;100441.91;5068037;28;19949;-53
2023/01/13 01:37:39;;;;;;;;;;;;;;;9.80;88.54;100434.16;5085240;28;19969;-53
2023/01/13 01:40:05;;;;;;;;;;;;;;;9.78;88.34;100433.28;5083732;28;19935;-51
2023/01/13 01:45:22;;;;;;;;;;;;;;;9.78;88.51;100447.81;5081101;28;19927;-50
2023/01/13 01:47:52;;;;;;;;;;;;;;;9.77;88.36;100440.91;5084899;28;22085;-52
2023/01/13 01:50:18;;;;;;;;;;;;;;;9.76;88.51;100441.75;5086001;28;19911;-50
2023/01/13 01:52:45;;;;;;;;;;;;;;;9.73;87.95;100439.13;5080752;28;19930;-49
2023/01/13 01:55:14;;;;;;;;;;;;;;;9.71;88.19;100438.19;5091161;28;19920;-52
2023/01/13 01:57:47;;;;;;;;;;;;;;;9.68;87.75;100432.16;5093549;28;20022;-53
2023/01/13 02:00:13;;;;;;;;;;;;;;;9.68;87.97;100429.59;5074729;28;19916;-52
2023/01/13 02:02:39;;;;;;;;;;;;;;;9.66;87.41;100438.09;5089996;28;19918;-51
2023/01/13 02:05:05;;;;;;;;;;;;;;;9.63;87.15;100441.44;5084237;28;19922;-51
2023/01/13 02:07:32;;;;;;;;;;;;;;;9.63;86.98;100428.63;5080617;28;19912;-53
2023/01/13 02:09:59;;;;;;;;;;;;;;;9.62;86.69;100432.00;5087603;28;20372;-52
2023/01/13 02:12:28;;;;;;;;;;;;;;;9.61;86.85;100422.59;5085155;28;19960;-52
2023/01/13 02:14:55;;;;;;;;;;;;;;;9.61;85.74;100431.97;5084059;28;20018;-52
2023/01/13 02:17:20;;;;;;;;;;;;;;;9.58;85.72;100426.75;5084788;28;19911;-53
2023/01/13 02:19:54;;;;;;;;;;;;;;;9.58;85.85;100424.19;5082415;28;19919;-52
2023/01/13 02:22:38;;;;;;;;;;;;;;;9.56;85.73;100425.88;5084230;28;19969;-53
2023/01/13 02:25:03;;;;;;;;;;;;;;;9.57;84.71;100431.03;5083033;28;19918;-52
2023/01/13 02:27:44;;;;;;;;;;;;;;;9.55;85.19;100426.69;5093644;28;19916;-52
2023/01/13 02:33:19;;;;;;;;;;;;;;;9.49;83.43;100419.72;5085985;28;20369;-52
2023/01/13 02:35:50;;;;;;;;;;;;;;;9.45;83.62;100427.28;5085350;28;19994;-49
2023/01/13 02:38:18;;;;;;;;;;;;;;;9.44;83.74;100428.13;5084483;28;19919;-53
2023/01/13 02:40:58;;;;;;;;;;;;;;;9.43;83.87;100427.25;5082333;28;19916;-50
2023/01/13 02:46:23;;;;;;;;;;;;;;;9.41;83.24;100410.97;5083678;28;20430;-50
2023/01/13 02:48:51;;;;;;;;;;;;;;;9.40;83.22;100409.19;5083264;28;20295;-50
2023/01/13 02:51:18;;;;;;;;;;;;;;;9.39;83.49;100402.34;5084757;28;19966;-51
2023/01/13 02:53:49;;;;;;;;;;;;;;;9.36;83.38;100408.28;5087407;28;19924;-48
2023/01/13 02:56:16;;;;;;;;;;;;;;;9.36;84.33;100404.84;5081849;28;19918;-52
2023/01/13 02:58:42;;;;;;;;;;;;;;;9.34;84.37;100399.69;5083666;28;20356;-52
2023/01/13 03:01:08;;;;;;;;;;;;;;;9.33;84.22;100408.16;5081801;28;19912;-51
2023/01/13 03:03:33;;;;;;;;;;;;;;;9.33;84.64;100403.03;5086798;28;19938;-51
2023/01/13 03:06:17;;;;;;;;;;;;;;;9.34;84.75;100409.94;5081820;28;19921;-53
2023/01/13 03:08:47;;;;;;;;;;;;;;;9.37;84.98;100409.13;5084945;28;20058;-50
2023/01/13 03:11:15;;;;;;;;;;;;;;;9.37;85.27;100404.00;5084882;28;19926;-48
2023/01/13 03:13:46;;;;;;;;;;;;;;;9.36;84.53;100405.69;5082047;28;19923;-51
2023/01/13 03:16:30;;;;;;;;;;;;;;;9.35;84.73;100397.97;5085549;28;19912;-52
2023/01/13 03:19:13;;;;;;;;;;;;;;;9.35;84.61;100388.56;5081629;28;19977;-49
2023/01/13 03:21:43;;;;;;;;;;;;;;;9.35;84.70;100395.41;5084497;28;20011;-47
2023/01/13 03:24:26;;;;;;;;;;;;;;;9.35;84.99;100390.28;5079104;28;20396;-48
2023/01/13 03:26:54;;;;;;;;;;;;;;;9.36;84.91;100381.75;5083968;28;19975;-52
2023/01/13 03:29:38;;;;;;;;;;;;;;;9.36;85.21;100382.59;5085896;28;19912;-52
2023/01/13 03:32:03;;;;;;;;;;;;;;;9.36;84.74;100372.34;5082252;28;19939;-47
2023/01/13 03:34:44;;;;;;;;;;;;;;;9.35;83.89;100375.75;5080215;28;20285;-48
2023/01/13 03:37:11;;;;;;;;;;;;;;;9.32;83.64;100369.66;5086811;28;19919;-52
2023/01/13 03:39:38;;;;;;;;;;;;;;;9.32;83.63;100374.78;5077667;28;20277;-53
2023/01/13 03:42:06;;;;;;;;;;;;;;;9.33;82.81;100366.25;5082646;28;19995;-51
2023/01/13 03:44:40;;;;;;;;;;;;;;;9.32;83.09;100369.66;5084423;28;19919;-51
2023/01/13 03:47:17;;;;;;;;;;;;;;;9.32;82.80;100364.53;5084407;28;19919;-49
2023/01/13 03:50:01;;;;;;;;;;;;;;;9.32;81.74;100367.09;5088645;28;20372;-51
2023/01/13 03:52:38;;;;;;;;;;;;;;;9.31;80.74;100363.66;5090786;28;19920;-52
2023/01/13 03:55:07;;;;;;;;;;;;;;;9.30;79.55;100361.94;5084053;28;19917;-52
2023/01/13 03:57:35;;;;;;;;;;;;;;;9.29;79.44;100370.47;5081984;28;19912;-51
2023/01/13 04:00:02;;;;;;;;;;;;;;;9.28;79.53;100365.25;5088439;28;19916;-51
2023/01/13 04:02:46;;;;;;;;;;;;;;;9.29;77.78;100372.16;5084695;28;19912;-53
2023/01/13 04:05:12;;;;;;;;;;;;;;;9.28;78.29;100379.00;5078722;28;20531;-53
2023/01/13 04:07:54;;;;;;;;;;;;;;;9.28;78.31;100389.25;5083659;28;19920;-50
2023/01/13 04:10:26;;;;;;;;;;;;;;;9.27;78.41;100394.31;5090726;28;19919;-53
2023/01/13 04:13:01;;;;;;;;;;;;;;;9.29;78.58;100416.66;5087217;28;19911;-52
2023/01/13 04:15:31;;;;;;;;;;;;;;;9.31;79.20;100409.84;5086261;28;19924;-50
2023/01/13 04:18:10;;;;;;;;;;;;;;;9.31;79.07;100412.41;5079705;28;19919;-51
2023/01/13 04:20:36;;;;;;;;;;;;;;;9.29;78.46;100420.91;5087355;28;19915;-49
2023/01/13 04:23:01;;;;;;;;;;;;;;;9.29;78.37;100431.16;5086047;28;19969;-52
2023/01/13 04:25:27;;;;;;;;;;;;;;;9.26;78.59;100420.81;5085667;28;20688;-50
2023/01/13 04:27:52;;;;;;;;;;;;;;;9.25;78.81;100434.47;5081577;28;19986;-52
2023/01/13 04:30:17;;;;;;;;;;;;;;;9.23;78.99;100425.88;5084127;28;20352;-51
2023/01/13 04:32:43;;;;;;;;;;;;;;;9.22;79.14;100424.13;5087274;28;19915;-53
2023/01/13 04:35:08;;;;;;;;;;;;;;;9.22;79.75;100419.88;5081104;28;20022;-49
2023/01/13 04:37:33;;;;;;;;;;;;;;;9.21;80.27;100417.25;5085547;28;19931;-52
2023/01/13 04:39:58;;;;;;;;;;;;;;;9.20;80.64;100416.38;5081655;28;19924;-51
2023/01/13 04:42:24;;;;;;;;;;;;;;;9.21;80.86;100422.38;5088320;28;20178;-49
2023/01/13 04:44:49;;;;;;;;;;;;;;;9.21;81.47;100414.69;5085252;28;20010;-53
2023/01/13 04:47:14;;;;;;;;;;;;;;;9.21;81.76;100417.25;5084452;28;19943;-49
2023/01/13 04:49:39;;;;;;;;;;;;;;;9.20;82.16;100415.53;5086249;28;19924;-50
2023/01/13 04:52:05;;;;;;;;;;;;;;;9.21;82.49;100401.84;5086679;28;19916;-51
2023/01/13 04:54:31;;;;;;;;;;;;;;;9.23;82.66;100384.84;5079147;28;19974;-50
2023/01/13 04:56:56;;;;;;;;;;;;;;;9.22;82.64;100393.31;5069855;28;19962;-52
2023/01/13 04:59:21;;;;;;;;;;;;;;;9.18;82.83;100397.53;5089856;28;20016;-52
2023/01/13 05:01:47;;;;;;;;;;;;;;;9.15;83.12;100387.16;5087508;28;19912;-53
2023/01/13 05:04:14;;;;;;;;;;;;;;;9.12;83.67;100382.84;5084562;28;20391;-51
2023/01/13 05:06:39;;;;;;;;;;;;;;;9.11;83.88;100383.69;5086959;28;20491;-53
2023/01/13 05:09:04;;;;;;;;;;;;;;;9.10;84.07;100379.38;5080635;28;19912;-50
2023/01/13 05:17:00;;;;;;;;;;;;;;;9.06;84.32;100377.56;5097425;27;19951;-48
2023/01/13 05:19:35;;;;;;;;;;;;;;;9.06;84.42;100381.81;5079934;28;19920;-50
2023/01/13 05:27:29;;;;;;;;;;;;;;;8.98;84.84;100402.13;5082190;28;19923;-50
2023/01/13 05:29:54;;;;;;;;;;;;;;;8.97;85.03;100391.81;5085860;28;20293;-53
2023/01/13 05:32:20;;;;;;;;;;;;;;;8.97;85.09;100402.94;5087360;28;20280;-49
2023/01/13 05:34:46;;;;;;;;;;;;;;;8.96;85.32;100414.03;5087774;28;19946;-53
2023/01/13 05:37:12;;;;;;;;;;;;;;;8.95;85.34;100408.88;5082312;28;19915;-53
2023/01/13 05:45:05;;;;;;;;;;;;;;;8.94;85.00;100417.41;5085021;28;19964;-49
2023/01/13 05:47:31;;;;;;;;;;;;;;;8.92;84.47;100427.63;5089904;28;19928;-52
2023/01/13 05:49:56;;;;;;;;;;;;;;;8.90;84.65;100426.69;5092819;28;19912;-48
2023/01/13 05:52:21;;;;;;;;;;;;;;;8.89;84.44;100434.34;5087036;28;19912;-52
2023/01/13 05:54:46;;;;;;;;;;;;;;;8.87;84.62;100439.44;5087183;28;20019;-53
2023/01/13 05:57:12;;;;;;;;;;;;;;;8.88;84.39;100451.41;5085192;28;19915;-51
2023/01/13 05:59:37;;;;;;;;;;;;;;;8.85;84.15;100444.50;5089503;28;20396;-52
2023/01/13 06:02:02;;;;;;;;;;;;;;;8.83;84.25;100446.16;5081716;28;19919;-50
2023/01/13 06:04:27;;;;;;;;;;;;;;;8.82;83.99;100444.44;5083233;28;19924;-51
2023/01/13 06:06:54;;;;;;;;;;;;;;;8.81;83.96;100441.81;5091478;28;20287;-52
2023/01/13 06:09:21;;;;;;;;;;;;;;;8.79;83.99;100436.63;5093392;28;19961;-51
2023/01/13 06:11:46;;;;;;;;;;;;;;;8.79;84.11;100451.16;5088598;28;19911;-50
2023/01/13 06:14:11;;;;;;;;;;;;;;;8.78;83.94;100446.84;5081411;28;19962;-50
2023/01/13 06:16:37;;;;;;;;;;;;;;;8.76;84.12;100453.63;5087153;28;20015;-52
2023/01/13 06:19:02;;;;;;;;;;;;;;;8.75;84.30;100449.34;5093986;28;19915;-50
2023/01/13 06:21:28;;;;;;;;;;;;;;;8.77;83.68;100452.81;5094003;28;19920;-53
2023/01/13 06:23:53;;;;;;;;;;;;;;;8.76;83.65;100448.50;5100092;28;19915;-52
2023/01/13 06:26:19;;;;;;;;;;;;;;;8.76;83.88;100458.75;5055791;28;19984;-53
2023/01/13 06:28:44;;;;;;;;;;;;;;;8.75;83.52;100451.91;5088540;28;19916;-53
2023/01/13 06:31:10;;;;;;;;;;;;;;;8.76;83.57;100451.94;5093395;28;19922;-53
2023/01/13 06:33:36;;;;;;;;;;;;;;;8.76;83.56;100449.38;5093032;28;20288;-52
2023/01/13 06:36:04;;;;;;;;;;;;;;;8.75;82.97;100455.34;5093468;28;19995;-51
2023/01/13 06:38:31;;;;;;;;;;;;;;;8.74;83.03;100455.31;5091947;28;19909;-52
2023/01/13 06:40:57;;;;;;;;;;;;;;;8.74;83.32;100461.28;5101713;28;20280;-52
2023/01/13 06:43:22;;;;;;;;;;;;;;;8.73;82.92;100466.34;5104230;28;19912;-52
2023/01/13 06:45:54;;;;;;;;;;;;;;;8.72;83.02;100460.34;5095251;28;20455;-53
2023/01/13 06:48:22;;;;;;;;;;;;;;;8.74;82.93;100470.69;5092405;28;19919;-51
2023/01/13 06:50:47;;;;;;;;;;;;;;;8.72;82.53;100456.94;5096172;28;19912;-51
2023/01/13 06:53:12;;;;;;;;;;;;;;;8.70;83.00;100456.88;5090202;28;19916;-52
2023/01/13 06:55:38;;;;;;;;;;;;;;;8.70;82.67;100444.06;5091784;28;19917;-50
2023/01/13 06:58:03;;;;;;;;;;;;;;;8.67;81.92;100443.97;5092984;28;19927;-50
2023/01/13 07:00:28;;;;;;;;;;;;;;;8.67;82.26;100461.03;5091562;28;19930;-51
2023/01/13 07:03:03;;;;;;;;;;;;;;;8.64;82.06;100463.53;5092591;28;19934;-52
2023/01/13 07:05:28;;;;;;;;;;;;;;;8.66;82.34;100459.31;5102197;28;20299;-50
2023/01/13 07:07:53;;;;;;;;;;;;;;;8.68;82.54;100467.94;5097426;28;19924;-50
2023/01/13 07:10:21;;;;;;;;;;;;;;;8.68;82.52;100463.69;5091254;28;19945;-53
2023/01/13 07:15:31;;;;;;;;;;;;;;;8.66;81.47;100469.56;5089700;28;19934;-53
2023/01/13 07:17:57;;;;;;;;;;;;;;;8.66;81.81;100472.13;5089862;28;20372;-52
2023/01/13 07:20:23;;;;;;;;;;;;;;;8.64;81.68;100469.53;5090022;28;19912;-52
2023/01/13 07:22:52;;;;;;;;;;;;;;;8.64;81.81;100478.91;5085412;28;19990;-49
2023/01/13 07:25:17;;;;;;;;;;;;;;;8.65;81.68;100472.97;5096910;28;19912;-50
2023/01/13 07:27:42;;;;;;;;;;;;;;;8.65;81.23;100475.53;5097635;28;19989;-51
2023/01/13 07:30:08;;;;;;;;;;;;;;;8.63;80.91;100485.72;5087074;28;19919;-52
2023/01/13 07:32:33;;;;;;;;;;;;;;;8.64;81.09;100484.91;5094223;28;20039;-52
2023/01/13 07:35:04;;;;;;;;;;;;;;;8.64;81.13;100484.03;5090948;28;20015;-53
2023/01/13 07:37:30;;;;;;;;;;;;;;;8.65;80.28;100493.47;5101609;28;20789;-52
2023/01/13 07:39:55;;;;;;;;;;;;;;;8.63;80.30;100487.44;5099128;28;20428;-52
2023/01/13 07:45:05;;;;;;;;;;;;;;;8.61;80.06;100484.81;5097642;28;19930;-45
2023/01/13 07:47:30;;;;;;;;;;;;;;;8.60;80.23;100489.06;5101810;28;19919;-53
2023/01/13 07:49:55;;;;;;;;;;;;;;;8.61;80.39;100495.06;5095726;28;20277;-52
2023/01/13 07:52:20;;;;;;;;;;;;;;;8.63;80.01;100493.44;5095265;28;19922;-50
2023/01/13 07:54:46;;;;;;;;;;;;;;;8.62;79.30;100490.81;5094426;28;19920;-51
2023/01/13 07:57:11;;;;;;;;;;;;;;;8.58;78.62;100488.16;5092345;28;19916;-51
2023/01/13 07:59:36;;;;;;;;;;;;;;;8.58;79.61;100490.72;5095570;28;20007;-53
2023/01/13 08:02:01;;;;;;;;;;;;;;;8.57;79.27;100488.97;5098768;28;19958;-50
2023/01/13 08:04:27;;;;;;;;;;;;;;;8.57;79.02;100495.81;5089654;28;19924;-50
2023/01/13 08:06:52;;;;;;;;;;;;;;;8.57;79.31;100493.25;5101056;28;20668;-50
2023/01/13 08:09:17;;;;;;;;;;;;;;;8.57;79.22;100501.78;5106585;28;19916;-51
2023/01/13 08:11:42;;;;;;;;;;;;;;;8.59;79.37;100504.41;5105810;28;19924;-52
2023/01/13 08:14:07;;;;;;;;;;;;;;;8.56;78.62;100500.06;5100765;28;19926;-52
2023/01/13 08:16:33;;;;;;;;;;;;;;;8.58;79.30;100502.66;5089192;28;19922;-50
2023/01/13 08:18:58;;;;;;;;;;;;;;;8.58;79.08;100506.09;5093484;28;20011;-52
2023/01/13 08:21:24;;;;;;;;;;;;;;;8.60;79.03;100514.69;5090568;28;19916;-53
2023/01/13 08:23:49;;;;;;;;;;;;;;;8.62;79.08;100521.59;5090139;28;20003;-53
2023/01/13 08:26:16;;;;;;;;;;;;;;;8.62;78.87;100522.44;5095950;28;19919;-52
2023/01/13 08:28:41;;;;;;;;;;;;;;;8.64;78.62;100519.91;5092625;28;19941;-50
2023/01/13 08:31:08;;;;;;;;;;;;;;;8.66;79.22;100523.38;5103496;28;19911;-52
2023/01/13 08:33:33;;;;;;;;;;;;;;;8.67;79.47;100520.00;5090230;28;19965;-51
2023/01/13 08:36:06;;;;;;;;;;;;;;;8.70;79.56;100527.78;5096655;28;20249;-48
2023/01/13 08:38:32;;;;;;;;;;;;;;;8.71;79.47;100530.41;5082689;28;19916;-51
2023/01/13 08:40:57;;;;;;;;;;;;;;;8.75;79.90;100532.25;5091313;28;19912;-52
2023/01/13 08:43:23;;;;;;;;;;;;;;;8.78;79.63;100528.88;5087114;28;19928;-52
2023/01/13 08:45:59;;;;;;;;;;;;;;;8.82;79.75;100530.72;5095063;28;19915;-51
2023/01/13 08:48:25;;;;;;;;;;;;;;;8.84;80.08;100534.19;5093692;28;19920;-47
2023/01/13 08:50:52;;;;;;;;;;;;;;;8.88;80.04;100527.47;5101195;28;19961;-52
2023/01/13 08:53:17;;;;;;;;;;;;;;;8.90;79.62;100533.50;5094818;28;19922;-52
2023/01/13 08:55:42;;;;;;;;;;;;;;;8.91;79.23;100541.25;5091605;28;19911;-53
2023/01/13 08:58:08;;;;;;;;;;;;;;;8.92;79.39;100548.13;5089702;28;19923;-53
2023/01/13 09:00:33;;;;;;;;;;;;;;;8.94;79.43;100543.03;5092805;28;19916;-52
2023/01/13 09:02:58;;;;;;;;;;;;;;;8.97;79.55;100559.38;5100097;28;20345;-53
2023/01/13 09:05:24;;;;;;;;;;;;;;;8.96;78.72;100555.06;5098365;28;20545;-53
2023/01/13 09:07:49;;;;;;;;;;;;;;;9.02;79.65;100557.81;5095044;28;20279;-52
2023/01/13 09:10:14;;;;;;;;;;;;;;;9.08;79.14;100555.44;5089132;28;19920;-51
2023/01/13 09:15:23;;;;;;;;;;;;;;;9.11;78.43;100568.34;5086541;28;20215;-50
2023/01/13 09:17:49;;;;;;;;;;;;;;;9.09;79.22;100549.47;5102350;28;19908;-50
2023/01/13 09:20:14;;;;;;;;;;;;;;;9.11;79.85;100541.84;5088005;28;19916;-50
2023/01/13 09:22:40;;;;;;;;;;;;;;;9.09;79.96;100546.91;5091940;28;19916;-52
2023/01/13 09:25:05;;;;;;;;;;;;;;;9.09;79.32;100559.72;5095988;28;19919;-50
2023/01/13 09:27:31;;;;;;;;;;;;;;;9.08;79.71;100565.69;5101401;28;19912;-51
2023/01/13 09:29:56;;;;;;;;;;;;;;;9.07;79.66;100556.25;5095514;28;20042;-50
2023/01/13 09:32:21;;;;;;;;;;;;;;;9.07;80.08;100569.09;5090474;28;20296;-51
2023/01/13 09:34:58;;;;;;;;;;;;;;;9.08;79.78;100568.25;5089020;28;19920;-52
2023/01/13 09:37:24;;;;;;;;;;;;;;;9.09;80.29;100564.00;5089154;28;20198;-50
2023/01/13 09:39:49;;;;;;;;;;;;;;;9.09;80.59;100569.13;5094276;28;20276;-52
2023/01/13 09:45:33;;;;;;;;;;;;;;;9.09;80.24;100584.50;5086063;28;19919;-52
2023/01/13 09:48:04;;;;;;;;;;;;;;;9.09;80.16;100593.06;5092292;28;20387;-52
2023/01/13 09:50:55;;;;;;;;;;;;;;;9.10;80.17;100605.09;5099529;28;20562;-51
2023/01/13 09:53:32;;;;;;;;;;;;;;;9.07;80.24;100592.16;5063834;28;19954;-48
2023/01/13 09:55:58;;;;;;;;;;;;;;;9.08;80.74;100600.72;5098454;28;20425;-51
2023/01/13 09:58:23;;;;;;;;;;;;;;;9.08;80.35;100614.41;5101219;28;20591;-51
2023/01/13 10:00:58;;;;;;;;;;;;;;;9.08;81.22;100611.84;5085875;28;20312;-49
2023/01/13 10:03:25;;;;;;;;;;;;;;;9.07;81.88;100614.38;5098783;28;19964;-53
2023/01/13 10:05:50;;;;;;;;;;;;;;;9.05;81.64;100606.66;5092754;28;19931;-51
2023/01/13 10:08:26;;;;;;;;;;;;;;;9.03;81.47;100609.97;5059991;28;19920;-50
2023/01/13 10:10:54;;;;;;;;;;;;;;;9.02;81.85;100619.38;5053205;28;20124;-51
2023/01/13 10:13:19;;;;;;;;;;;;;;;9.05;82.39;100605.78;5058356;28;19947;-50
2023/01/13 10:15:50;;;;;;;;;;;;;;;9.07;82.90;100625.50;5052999;28;20007;-49
2023/01/13 10:18:32;;;;;;;;;;;;;;;9.05;83.09;100632.31;5055951;28;20369;-51
2023/01/13 10:21:07;;;;;;;;;;;;;;;9.04;82.99;100634.78;5062515;28;20011;-52
2023/01/13 10:23:37;;;;;;;;;;;;;;;9.00;83.53;100627.84;5061322;28;19986;-51
2023/01/13 10:26:23;;;;;;;;;;;;;;;8.97;84.56;100626.03;5060868;28;19964;-50
2023/01/13 10:28:53;;;;;;;;;;;;;;;8.96;84.50;100637.13;5062187;28;19920;-51
2023/01/13 10:31:19;;;;;;;;;;;;;;;8.96;84.73;100647.38;5056873;28;19924;-51
2023/01/13 10:33:44;;;;;;;;;;;;;;;8.94;85.41;100646.47;5057676;28;19921;-49
2023/01/13 10:36:15;;;;;;;;;;;;;;;8.94;85.65;100654.19;5049565;28;19921;-50
2023/01/13 10:38:44;;;;;;;;;;;;;;;8.95;85.90;100655.03;5054362;28;19920;-50
2023/01/13 10:41:12;;;;;;;;;;;;;;;8.94;85.77;100658.44;5050632;28;20388;-50
2023/01/13 10:43:37;;;;;;;;;;;;;;;8.93;85.89;100659.25;5059790;28;19959;-49
2023/01/13 10:46:04;;;;;;;;;;;;;;;8.92;86.09;100685.69;5057531;28;19920;-52
2023/01/13 10:48:40;;;;;;;;;;;;;;;8.88;85.93;100658.25;5060518;28;20294;-51
2023/01/13 10:51:28;;;;;;;;;;;;;;;8.84;85.81;100660.69;5056338;28;20292;-52
2023/01/13 10:53:54;;;;;;;;;;;;;;;8.82;86.25;100664.03;5055871;28;19921;-50
2023/01/13 10:56:21;;;;;;;;;;;;;;;8.81;86.46;100658.06;5059108;28;19970;-51
2023/01/13 10:58:46;;;;;;;;;;;;;;;8.82;86.49;100657.22;5059532;28;19924;-50
2023/01/13 11:01:18;;;;;;;;;;;;;;;8.83;86.77;100656.41;5052853;28;19920;-50
2023/01/13 11:03:46;;;;;;;;;;;;;;;8.85;86.83;100659.00;5056541;28;19919;-49
2023/01/13 11:06:19;;;;;;;;;;;;;;;8.86;87.11;100660.78;5046983;28;19921;-49
2023/01/13 11:08:46;;;;;;;;;;;;;;;8.85;87.28;100664.13;5060777;28;19974;-49
2023/01/13 11:11:24;;;;;;;;;;;;;;;8.85;86.81;100665.00;5065950;28;19917;-47
2023/01/13 11:16:35;;;;;;;;;;;;;;;8.88;86.94;100659.13;5063659;28;19928;-51
2023/01/13 11:19:13;;;;;;;;;;;;;;;8.89;86.95;100672.81;5054289;28;20297;-51
2023/01/13 11:21:53;;;;;;;;;;;;;;;8.92;87.20;100658.41;5052983;28;19999;-50
2023/01/13 11:24:36;;;;;;;;;;;;;;;8.96;86.92;100687.56;5050965;28;20328;-51
2023/01/13 11:27:13;;;;;;;;;;;;;;;8.94;85.90;100669.56;5051057;28;19917;-49
2023/01/13 11:29:57;;;;;;;;;;;;;;;8.93;85.85;100672.97;5049521;28;19921;-51
2023/01/13 11:32:23;;;;;;;;;;;;;;;8.95;85.76;100673.88;5048445;28;20281;-49
2023/01/13 11:34:51;;;;;;;;;;;;;;;8.97;85.56;100679.03;5049591;28;20012;-48
2023/01/13 11:37:29;;;;;;;;;;;;;;;8.99;85.68;100680.84;5051509;28;20381;-51
2023/01/13 11:40:13;;;;;;;;;;;;;;;9.01;85.69;100666.34;5049479;28;19916;-48
2023/01/13 11:42:52;;;;;;;;;;;;;;;9.03;84.91;100674.97;5048507;28;19923;-48
2023/01/13 11:45:26;;;;;;;;;;;;;;;9.05;85.08;100672.47;5047654;28;20296;-51
2023/01/13 11:47:53;;;;;;;;;;;;;;;9.06;84.88;100675.06;5051001;28;20389;-49
2023/01/13 11:50:37;;;;;;;;;;;;;;;9.09;84.46;100677.72;5048047;28;19963;-51
2023/01/13 11:53:29;;;;;;;;;;;;;;;9.08;84.43;100683.69;5046673;28;19916;-51
2023/01/13 11:56:13;;;;;;;;;;;;;;;9.10;83.54;100700.00;5044615;28;20432;-51
2023/01/13 11:58:58;;;;;;;;;;;;;;;9.07;83.28;100705.03;5050947;28;19917;-52
2023/01/13 12:01:23;;;;;;;;;;;;;;;9.09;83.87;100700.81;5049515;28;19987;-51
2023/01/13 12:03:57;;;;;;;;;;;;;;;9.07;83.13;100691.34;5051715;28;19952;-51
2023/01/13 12:06:30;;;;;;;;;;;;;;;9.08;83.63;100708.47;5048626;28;19928;-50
2023/01/13 12:09:04;;;;;;;;;;;;;;;9.11;83.94;100723.97;5047041;28;19921;-49
2023/01/13 12:12:18;;;;;;;;;;;;;;;9.14;83.46;100704.38;5050444;28;20388;-47
2023/01/13 12:14:35;;;;;;;;;;;;;;;9.16;83.32;100724.09;5048697;28;19932;-51
2023/01/13 12:17:02;;;;;;;;;;;;;;;9.19;83.14;100721.63;5049548;28;19960;-48
2023/01/13 12:19:31;;;;;;;;;;;;;;;9.20;83.17;100729.38;5048414;28;20381;-52
2023/01/13 12:21:56;;;;;;;;;;;;;;;9.24;83.08;100726.09;5049026;28;20412;-49
2023/01/13 12:24:24;;;;;;;;;;;;;;;9.23;81.75;100731.19;5049852;28;19956;-52
2023/01/13 12:26:57;;;;;;;;;;;;;;;9.21;81.40;100731.09;5049156;28;19925;-50
2023/01/13 12:29:28;;;;;;;;;;;;;;;9.20;80.91;100739.63;5048462;28;19982;-52
2023/01/13 12:31:54;;;;;;;;;;;;;;;9.17;81.35;100731.84;5048492;28;19924;-49
2023/01/13 12:34:24;;;;;;;;;;;;;;;9.18;81.79;100745.53;5050415;28;19913;-52
2023/01/13 12:37:01;;;;;;;;;;;;;;;9.16;81.53;100745.50;5049569;28;19939;-52
2023/01/13 12:39:45;;;;;;;;;;;;;;;9.16;81.46;100737.81;5047909;28;19939;-51
2023/01/13 12:45:10;;;;;;;;;;;;;;;9.19;81.71;100739.59;5050584;28;19919;-48
2023/01/13 12:47:43;;;;;;;;;;;;;;;9.21;80.56;100748.19;5046187;28;20351;-51
2023/01/13 12:50:39;;;;;;;;;;;;;;;9.21;80.58;100754.19;5049327;28;19971;-49
2023/01/13 12:53:43;;;;;;;;;;;;;;;9.21;79.74;100771.28;5020368;28;19912;-51
2023/01/13 12:56:20;;;;;;;;;;;;;;;9.20;79.61;100757.59;4943103;28;19918;-53
2023/01/13 12:58:46;;;;;;;;;;;;;;;9.20;79.69;100761.84;4968996;28;19918;-52
2023/01/13 13:01:13;;;;;;;;;;;;;;;9.21;79.65;100766.16;5012006;28;19932;-50
2023/01/13 13:03:38;;;;;;;;;;;;;;;9.21;79.40;100777.28;5049782;28;20431;-51
2023/01/13 13:06:09;;;;;;;;;;;;;;;9.24;80.05;100779.97;5047604;28;19926;-51
2023/01/13 13:08:53;;;;;;;;;;;;;;;9.28;80.87;100775.78;5048924;28;19947;-50
2023/01/13 13:14:03;;;;;;;;;;;;;;;9.37;80.12;100783.78;5046732;28;19923;-47
2023/01/13 13:16:29;;;;;;;;;;;;;;;9.38;80.07;100788.09;5049885;28;20248;-52
2023/01/13 13:19:13;;;;;;;;;;;;;;;9.40;80.46;100799.25;5048458;28;19975;-49
2023/01/13 13:21:56;;;;;;;;;;;;;;;9.43;79.33;100807.06;5048980;28;19923;-52
2023/01/13 13:24:22;;;;;;;;;;;;;;;9.42;79.56;100807.03;5049114;28;19913;-52
2023/01/13 13:26:48;;;;;;;;;;;;;;;9.44;79.80;100820.78;5049599;28;19921;-49
2023/01/13 13:29:28;;;;;;;;;;;;;;;9.44;79.81;100813.06;5047502;28;20203;-50
2023/01/13 13:32:19;;;;;;;;;;;;;;;9.45;80.16;100814.81;5046908;28;19921;-50
2023/01/13 13:35:04;;;;;;;;;;;;;;;9.47;79.71;100808.06;5043702;28;20450;-49
2023/01/13 13:49:06;;;;;;;;;;;;;;;9.45;78.19;100843.03;5048040;28;19970;-50
2023/01/13 13:51:39;;;;;;;;;;;;;;;9.43;78.59;100843.00;5047501;28;19921;-49